sensor_id;sensor_type;location;lat;lon;timestamp;temperature;humidity
33564;DHT22;19894;48.452;11.494;2023-02-24T00:01:16;18.60;40.70
33564;DHT22;19894;48.452;11.494;2023-02-24T00:03:50;18.60;40.90
33564;DHT22;19894;48.452;11.494;2023-02-24T00:06:16;18.60;40.80
33564;DHT22;19894;48.452;11.494;2023-02-24T00:08:41;18.60;40.80
33564;DHT22;19894;48.452;11.494;2023-02-24T00:11:09;18.60;40.80
33564;DHT22;19894;48.452;11.494;2023-02-24T00:13:35;18.60;40.80
33564;DHT22;19894;48.452;11.494;2023-02-24T00:16:02;18.60;40.80
33564;DHT22;19894;48.452;11.494;2023-02-24T00:18:28;18.60;40.80
33564;DHT22;19894;48.452;11.494;2023-02-24T00:20:53;18.60;40.80
33564;DHT22;19894;48.452;11.494;2023-02-24T00:23:22;18.60;40.80
33564;DHT22;19894;48.452;11.494;2023-02-24T00:25:48;18.60;40.80
33564;DHT22;19894;48.452;11.494;2023-02-24T00:28:14;18.60;40.80
33564;DHT22;19894;48.452;11.494;2023-02-24T00:30:39;18.60;40.80
33564;DHT22;19894;48.452;11.494;2023-02-24T00:33:05;18.60;40.70
33564;DHT22;19894;48.452;11.494;2023-02-24T00:35:31;18.60;40.80
33564;DHT22;19894;48.452;11.494;2023-02-24T00:37:56;18.60;40.70
33564;DHT22;19894;48.452;11.494;2023-02-24T00:40:22;18.60;40.70
33564;DHT22;19894;48.452;11.494;2023-02-24T00:42:48;18.60;40.70
33564;DHT22;19894;48.452;11.494;2023-02-24T00:45:14;18.60;40.70
33564;DHT22;19894;48.452;11.494;2023-02-24T00:47:41;18.60;40.70
33564;DHT22;19894;48.452;11.494;2023-02-24T00:50:07;18.60;41.20
33564;DHT22;19894;48.452;11.494;2023-02-24T00:52:34;18.60;40.70
33564;DHT22;19894;48.452;11.494;2023-02-24T00:55:01;18.60;40.70
33564;DHT22;19894;48.452;11.494;2023-02-24T00:57:38;18.60;40.70
33564;DHT22;19894;48.452;11.494;2023-02-24T01:00:04;18.60;40.80
33564;DHT22;19894;48.452;11.494;2023-02-24T01:02:35;18.60;40.70
33564;DHT22;19894;48.452;11.494;2023-02-24T01:05:02;18.60;40.80
33564;DHT22;19894;48.452;11.494;2023-02-24T01:07:28;18.60;40.80
33564;DHT22;19894;48.452;11.494;2023-02-24T01:09:53;18.60;40.80
33564;DHT22;19894;48.452;11.494;2023-02-24T01:12:19;18.60;40.80
33564;DHT22;19894;48.452;11.494;2023-02-24T01:15:04;18.60;40.80
33564;DHT22;19894;48.452;11.494;2023-02-24T01:17:35;18.60;40.80
33564;DHT22;19894;48.452;11.494;2023-02-24T01:20:02;18.60;40.80
33564;DHT22;19894;48.452;11.494;2023-02-24T01:22:40;18.60;40.80
33564;DHT22;19894;48.452;11.494;2023-02-24T01:25:06;18.60;40.80
33564;DHT22;19894;48.452;11.494;2023-02-24T01:27:33;18.60;40.80
33564;DHT22;19894;48.452;11.494;2023-02-24T01:30:02;18.60;40.80
33564;DHT22;19894;48.452;11.494;2023-02-24T01:32:29;18.60;40.80
33564;DHT22;19894;48.452;11.494;2023-02-24T01:34:56;18.60;40.80
33564;DHT22;19894;48.452;11.494;2023-02-24T01:37:22;18.60;40.80
33564;DHT22;19894;48.452;11.494;2023-02-24T01:39:48;18.60;40.80
33564;DHT22;19894;48.452;11.494;2023-02-24T01:42:19;18.60;40.80
33564;DHT22;19894;48.452;11.494;2023-02-24T01:47:11;18.60;40.80
33564;DHT22;19894;48.452;11.494;2023-02-24T01:49:43;18.60;40.80
33564;DHT22;19894;48.452;11.494;2023-02-24T01:52:29;18.60;40.70
33564;DHT22;19894;48.452;11.494;2023-02-24T01:55:05;18.60;40.80
33564;DHT22;19894;48.452;11.494;2023-02-24T01:57:35;18.60;40.70
33564;DHT22;19894;48.452;11.494;2023-02-24T02:00:07;18.60;40.80
33564;DHT22;19894;48.452;11.494;2023-02-24T02:02:36;18.60;40.80
33564;DHT22;19894;48.452;11.494;2023-02-24T02:05:06;18.60;40.80
33564;DHT22;19894;48.452;11.494;2023-02-24T02:07:33;18.60;40.80
33564;DHT22;19894;48.452;11.494;2023-02-24T02:10:00;18.60;40.80
33564;DHT22;19894;48.452;11.494;2023-02-24T02:12:30;18.60;40.80
33564;DHT22;19894;48.452;11.494;2023-02-24T02:14:57;18.60;40.80
33564;DHT22;19894;48.452;11.494;2023-02-24T02:20:23;18.60;40.80
33564;DHT22;19894;48.452;11.494;2023-02-24T02:36:45;18.60;40.90
33564;DHT22;19894;48.452;11.494;2023-02-24T02:39:46;18.60;40.90
33564;DHT22;19894;48.452;11.494;2023-02-24T02:42:40;18.60;40.90
33564;DHT22;19894;48.452;11.494;2023-02-24T02:48:03;18.60;40.90
33564;DHT22;19894;48.452;11.494;2023-02-24T02:50:38;18.60;40.90
33564;DHT22;19894;48.452;11.494;2023-02-24T02:53:15;18.60;40.90
33564;DHT22;19894;48.452;11.494;2023-02-24T02:55:55;18.60;40.80
33564;DHT22;19894;48.452;11.494;2023-02-24T02:58:26;18.60;40.90
33564;DHT22;19894;48.452;11.494;2023-02-24T03:00:57;18.60;40.80
33564;DHT22;19894;48.452;11.494;2023-02-24T03:03:49;18.60;40.80
33564;DHT22;19894;48.452;11.494;2023-02-24T03:06:25;18.60;40.90
33564;DHT22;19894;48.452;11.494;2023-02-24T03:09:20;18.60;40.90
33564;DHT22;19894;48.452;11.494;2023-02-24T03:11:56;18.60;40.80
33564;DHT22;19894;48.452;11.494;2023-02-24T03:14:32;18.60;40.90
33564;DHT22;19894;48.452;11.494;2023-02-24T03:17:04;18.60;40.90
33564;DHT22;19894;48.452;11.494;2023-02-24T03:19:34;18.60;40.90
33564;DHT22;19894;48.452;11.494;2023-02-24T03:24:40;18.60;41.00
33564;DHT22;19894;48.452;11.494;2023-02-24T03:27:18;18.60;40.90
33564;DHT22;19894;48.452;11.494;2023-02-24T03:30:17;18.60;40.90
33564;DHT22;19894;48.452;11.494;2023-02-24T03:33:09;18.60;40.90
33564;DHT22;19894;48.452;11.494;2023-02-24T03:35:39;18.60;40.90
33564;DHT22;19894;48.452;11.494;2023-02-24T03:38:07;18.60;40.90
33564;DHT22;19894;48.452;11.494;2023-02-24T03:40:36;18.60;40.90
33564;DHT22;19894;48.452;11.494;2023-02-24T03:43:17;18.60;40.90
33564;DHT22;19894;48.452;11.494;2023-02-24T03:45:47;18.60;40.90
33564;DHT22;19894;48.452;11.494;2023-02-24T03:48:13;18.60;40.90
33564;DHT22;19894;48.452;11.494;2023-02-24T03:50:40;18.60;40.90
33564;DHT22;19894;48.452;11.494;2023-02-24T03:53:40;18.60;40.90
33564;DHT22;19894;48.452;11.494;2023-02-24T03:59:23;18.60;40.90
33564;DHT22;19894;48.452;11.494;2023-02-24T04:02:09;18.60;40.80
33564;DHT22;19894;48.452;11.494;2023-02-24T04:04:50;18.60;40.80
33564;DHT22;19894;48.452;11.494;2023-02-24T04:07:39;18.60;40.90
33564;DHT22;19894;48.452;11.494;2023-02-24T04:10:12;18.60;40.90
33564;DHT22;19894;48.452;11.494;2023-02-24T04:12:51;18.60;40.90
33564;DHT22;19894;48.452;11.494;2023-02-24T04:15:32;18.60;40.90
33564;DHT22;19894;48.452;11.494;2023-02-24T04:18:10;18.60;40.90
33564;DHT22;19894;48.452;11.494;2023-02-24T04:20:39;18.60;41.40
33564;DHT22;19894;48.452;11.494;2023-02-24T04:23:15;18.60;40.90
33564;DHT22;19894;48.452;11.494;2023-02-24T04:25:45;18.60;40.90
33564;DHT22;19894;48.452;11.494;2023-02-24T04:28:12;18.60;40.90
33564;DHT22;19894;48.452;11.494;2023-02-24T04:30:42;18.50;40.80
33564;DHT22;19894;48.452;11.494;2023-02-24T04:33:08;18.60;40.90
33564;DHT22;19894;48.452;11.494;2023-02-24T04:35:34;18.60;40.90
33564;DHT22;19894;48.452;11.494;2023-02-24T04:38:03;18.60;40.90
33564;DHT22;19894;48.452;11.494;2023-02-24T04:40:29;18.60;40.80
33564;DHT22;19894;48.452;11.494;2023-02-24T04:42:55;18.60;40.80
33564;DHT22;19894;48.452;11.494;2023-02-24T04:45:26;18.60;40.80
33564;DHT22;19894;48.452;11.494;2023-02-24T04:47:54;18.60;40.80
33564;DHT22;19894;48.452;11.494;2023-02-24T04:50:22;18.60;40.80
33564;DHT22;19894;48.452;11.494;2023-02-24T04:53:06;18.60;40.80
33564;DHT22;19894;48.452;11.494;2023-02-24T04:55:36;18.60;40.70
33564;DHT22;19894;48.452;11.494;2023-02-24T04:58:05;18.60;40.70
33564;DHT22;19894;48.452;11.494;2023-02-24T05:00:31;18.60;40.70
33564;DHT22;19894;48.452;11.494;2023-02-24T05:03:04;18.60;40.70
33564;DHT22;19894;48.452;11.494;2023-02-24T05:05:30;18.60;40.70
33564;DHT22;19894;48.452;11.494;2023-02-24T05:08:08;18.60;40.70
33564;DHT22;19894;48.452;11.494;2023-02-24T05:10:36;18.60;40.70
33564;DHT22;19894;48.452;11.494;2023-02-24T05:13:03;18.60;40.80
33564;DHT22;19894;48.452;11.494;2023-02-24T05:15:31;18.60;40.70
33564;DHT22;19894;48.452;11.494;2023-02-24T05:17:58;18.60;40.80
33564;DHT22;19894;48.452;11.494;2023-02-24T05:20:25;18.60;40.80
33564;DHT22;19894;48.452;11.494;2023-02-24T05:23:10;18.60;40.80
33564;DHT22;19894;48.452;11.494;2023-02-24T05:25:36;18.60;40.80
33564;DHT22;19894;48.452;11.494;2023-02-24T05:28:05;18.60;40.80
33564;DHT22;19894;48.452;11.494;2023-02-24T05:30:31;18.60;40.80
33564;DHT22;19894;48.452;11.494;2023-02-24T05:32:57;18.60;40.80
33564;DHT22;19894;48.452;11.494;2023-02-24T05:35:23;18.60;40.80
33564;DHT22;19894;48.452;11.494;2023-02-24T05:37:49;18.60;40.80
33564;DHT22;19894;48.452;11.494;2023-02-24T05:40:16;18.60;40.80
33564;DHT22;19894;48.452;11.494;2023-02-24T05:42:45;18.60;40.80
33564;DHT22;19894;48.452;11.494;2023-02-24T05:45:11;18.60;40.70
33564;DHT22;19894;48.452;11.494;2023-02-24T05:47:37;18.60;40.80
33564;DHT22;19894;48.452;11.494;2023-02-24T05:50:04;18.60;40.70
33564;DHT22;19894;48.452;11.494;2023-02-24T05:52:30;18.60;40.70
33564;DHT22;19894;48.452;11.494;2023-02-24T05:54:55;18.60;40.80
33564;DHT22;19894;48.452;11.494;2023-02-24T05:57:21;18.60;40.70
33564;DHT22;19894;48.452;11.494;2023-02-24T05:59:51;18.60;40.70
33564;DHT22;19894;48.452;11.494;2023-02-24T06:02:20;18.60;40.70
33564;DHT22;19894;48.452;11.494;2023-02-24T06:04:52;18.60;40.70
33564;DHT22;19894;48.452;11.494;2023-02-24T06:07:28;18.60;40.70
33564;DHT22;19894;48.452;11.494;2023-02-24T06:09:59;18.60;40.70
33564;DHT22;19894;48.452;11.494;2023-02-24T06:12:26;18.60;40.70
33564;DHT22;19894;48.452;11.494;2023-02-24T06:14:52;18.60;40.70
33564;DHT22;19894;48.452;11.494;2023-02-24T06:17:19;18.60;40.70
33564;DHT22;19894;48.452;11.494;2023-02-24T06:19:47;18.60;40.70
33564;DHT22;19894;48.452;11.494;2023-02-24T06:22:15;18.60;40.70
33564;DHT22;19894;48.452;11.494;2023-02-24T06:24:41;18.60;40.70
33564;DHT22;19894;48.452;11.494;2023-02-24T06:27:12;18.60;40.70
33564;DHT22;19894;48.452;11.494;2023-02-24T06:29:43;18.60;40.80
33564;DHT22;19894;48.452;11.494;2023-02-24T06:32:09;18.60;40.70
33564;DHT22;19894;48.452;11.494;2023-02-24T06:34:36;18.60;40.80
33564;DHT22;19894;48.452;11.494;2023-02-24T06:37:03;18.60;40.70
33564;DHT22;19894;48.452;11.494;2023-02-24T06:39:30;18.60;40.70
33564;DHT22;19894;48.452;11.494;2023-02-24T06:41:57;18.60;40.80
33564;DHT22;19894;48.452;11.494;2023-02-24T06:44:31;18.60;40.70
33564;DHT22;19894;48.452;11.494;2023-02-24T06:46:57;18.60;40.70
33564;DHT22;19894;48.452;11.494;2023-02-24T06:49:23;18.60;40.70
33564;DHT22;19894;48.452;11.494;2023-02-24T06:51:49;18.60;40.70
33564;DHT22;19894;48.452;11.494;2023-02-24T06:54:15;18.60;40.70
33564;DHT22;19894;48.452;11.494;2023-02-24T06:56:41;18.60;40.70
33564;DHT22;19894;48.452;11.494;2023-02-24T06:59:07;18.60;40.70
33564;DHT22;19894;48.452;11.494;2023-02-24T07:01:36;18.60;40.70
33564;DHT22;19894;48.452;11.494;2023-02-24T07:04:10;18.60;40.70
33564;DHT22;19894;48.452;11.494;2023-02-24T07:06:38;18.60;40.60
33564;DHT22;19894;48.452;11.494;2023-02-24T07:09:12;18.60;40.70
33564;DHT22;19894;48.452;11.494;2023-02-24T07:11:40;18.60;40.70
33564;DHT22;19894;48.452;11.494;2023-02-24T07:14:07;18.60;40.70
33564;DHT22;19894;48.452;11.494;2023-02-24T07:16:34;18.60;40.70
33564;DHT22;19894;48.452;11.494;2023-02-24T07:19:03;18.60;40.70
33564;DHT22;19894;48.452;11.494;2023-02-24T07:21:30;18.60;40.70
33564;DHT22;19894;48.452;11.494;2023-02-24T07:24:06;18.60;40.70
33564;DHT22;19894;48.452;11.494;2023-02-24T07:26:33;18.60;40.70
33564;DHT22;19894;48.452;11.494;2023-02-24T07:28:59;18.60;40.70
33564;DHT22;19894;48.452;11.494;2023-02-24T07:31:30;18.60;40.70
33564;DHT22;19894;48.452;11.494;2023-02-24T07:33:58;18.60;40.80
33564;DHT22;19894;48.452;11.494;2023-02-24T07:36:27;18.60;40.80
33564;DHT22;19894;48.452;11.494;2023-02-24T07:38:56;18.50;40.70
33564;DHT22;19894;48.452;11.494;2023-02-24T07:41:24;18.50;40.70
33564;DHT22;19894;48.452;11.494;2023-02-24T07:43:51;18.60;40.80
33564;DHT22;19894;48.452;11.494;2023-02-24T07:46:25;18.60;40.80
33564;DHT22;19894;48.452;11.494;2023-02-24T07:48:52;18.60;40.70
33564;DHT22;19894;48.452;11.494;2023-02-24T07:51:22;18.60;40.70
33564;DHT22;19894;48.452;11.494;2023-02-24T07:53:53;18.60;40.70
33564;DHT22;19894;48.452;11.494;2023-02-24T07:56:22;18.60;40.80
33564;DHT22;19894;48.452;11.494;2023-02-24T07:58:52;18.60;40.80
33564;DHT22;19894;48.452;11.494;2023-02-24T08:01:25;18.60;40.80
33564;DHT22;19894;48.452;11.494;2023-02-24T08:03:55;18.60;40.70
33564;DHT22;19894;48.452;11.494;2023-02-24T08:06:24;18.60;40.70
33564;DHT22;19894;48.452;11.494;2023-02-24T08:09:07;18.60;40.70
33564;DHT22;19894;48.452;11.494;2023-02-24T08:11:43;18.60;40.70
33564;DHT22;19894;48.452;11.494;2023-02-24T08:14:11;18.60;40.70
33564;DHT22;19894;48.452;11.494;2023-02-24T08:16:44;18.60;40.80
33564;DHT22;19894;48.452;11.494;2023-02-24T08:19:12;18.60;40.80
33564;DHT22;19894;48.452;11.494;2023-02-24T08:21:42;18.60;40.80
33564;DHT22;19894;48.452;11.494;2023-02-24T08:24:16;18.60;40.80
33564;DHT22;19894;48.452;11.494;2023-02-24T08:26:46;18.60;40.80
33564;DHT22;19894;48.452;11.494;2023-02-24T08:29:29;18.60;40.80
33564;DHT22;19894;48.452;11.494;2023-02-24T08:31:56;18.60;40.80
33564;DHT22;19894;48.452;11.494;2023-02-24T08:34:22;18.60;40.80
33564;DHT22;19894;48.452;11.494;2023-02-24T08:36:51;18.60;40.80
33564;DHT22;19894;48.452;11.494;2023-02-24T08:39:20;18.60;40.80
33564;DHT22;19894;48.452;11.494;2023-02-24T08:41:47;18.60;40.80
33564;DHT22;19894;48.452;11.494;2023-02-24T08:44:17;18.60;40.80
33564;DHT22;19894;48.452;11.494;2023-02-24T08:46:46;18.60;40.80
33564;DHT22;19894;48.452;11.494;2023-02-24T08:49:16;18.60;40.80
33564;DHT22;19894;48.452;11.494;2023-02-24T08:51:44;18.60;40.80
33564;DHT22;19894;48.452;11.494;2023-02-24T08:54:22;18.60;40.80
33564;DHT22;19894;48.452;11.494;2023-02-24T08:56:53;18.60;40.80
33564;DHT22;19894;48.452;11.494;2023-02-24T08:59:25;18.60;40.90
33564;DHT22;19894;48.452;11.494;2023-02-24T09:02:10;18.60;40.90
33564;DHT22;19894;48.452;11.494;2023-02-24T09:04:44;18.60;40.90
33564;DHT22;19894;48.452;11.494;2023-02-24T09:07:15;18.60;40.90
33564;DHT22;19894;48.452;11.494;2023-02-24T09:09:42;18.60;40.80
33564;DHT22;19894;48.452;11.494;2023-02-24T09:12:10;18.60;40.80
33564;DHT22;19894;48.452;11.494;2023-02-24T09:14:47;18.60;40.80
33564;DHT22;19894;48.452;11.494;2023-02-24T09:17:15;18.60;40.80
33564;DHT22;19894;48.452;11.494;2023-02-24T09:22:28;18.60;40.90
33564;DHT22;19894;48.452;11.494;2023-02-24T09:25:04;18.60;40.90
33564;DHT22;19894;48.452;11.494;2023-02-24T09:28:13;18.60;40.90
33564;DHT22;19894;48.452;11.494;2023-02-24T09:38:13;18.60;40.90
33564;DHT22;19894;48.452;11.494;2023-02-24T09:40:43;18.60;40.90
33564;DHT22;19894;48.452;11.494;2023-02-24T09:43:21;18.60;41.00
33564;DHT22;19894;48.452;11.494;2023-02-24T09:45:53;18.60;41.00
33564;DHT22;19894;48.452;11.494;2023-02-24T09:48:32;18.60;41.00
33564;DHT22;19894;48.452;11.494;2023-02-24T09:51:11;18.60;40.90
33564;DHT22;19894;48.452;11.494;2023-02-24T09:53:50;18.60;40.90
33564;DHT22;19894;48.452;11.494;2023-02-24T09:59:08;18.60;41.00
33564;DHT22;19894;48.452;11.494;2023-02-24T10:04:59;18.60;41.10
33564;DHT22;19894;48.452;11.494;2023-02-24T10:07:37;18.60;41.10
33564;DHT22;19894;48.452;11.494;2023-02-24T10:10:13;18.60;41.00
33564;DHT22;19894;48.452;11.494;2023-02-24T10:12:50;18.60;41.00
33564;DHT22;19894;48.452;11.494;2023-02-24T10:15:20;18.60;41.00
33564;DHT22;19894;48.452;11.494;2023-02-24T10:18:45;18.60;41.00
33564;DHT22;19894;48.452;11.494;2023-02-24T10:21:23;18.60;41.00
33564;DHT22;19894;48.452;11.494;2023-02-24T10:24:30;18.60;41.00
33564;DHT22;19894;48.452;11.494;2023-02-24T10:29:56;18.60;41.10
33564;DHT22;19894;48.452;11.494;2023-02-24T10:32:45;18.60;41.10
33564;DHT22;19894;48.452;11.494;2023-02-24T10:35:15;18.60;41.10
33564;DHT22;19894;48.452;11.494;2023-02-24T10:37:41;18.60;41.20
33564;DHT22;19894;48.452;11.494;2023-02-24T10:40:07;18.60;41.70
33564;DHT22;19894;48.452;11.494;2023-02-24T10:42:38;18.60;41.10
33564;DHT22;19894;48.452;11.494;2023-02-24T10:47:39;18.60;41.20
33564;DHT22;19894;48.452;11.494;2023-02-24T10:50:42;18.60;41.20
33564;DHT22;19894;48.452;11.494;2023-02-24T10:53:13;18.60;41.20
33564;DHT22;19894;48.452;11.494;2023-02-24T10:55:58;18.60;41.20
33564;DHT22;19894;48.452;11.494;2023-02-24T10:58:44;18.60;41.20
33564;DHT22;19894;48.452;11.494;2023-02-24T11:01:18;18.60;41.20
33564;DHT22;19894;48.452;11.494;2023-02-24T11:03:54;18.60;41.30
33564;DHT22;19894;48.452;11.494;2023-02-24T11:06:29;18.60;41.30
33564;DHT22;19894;48.452;11.494;2023-02-24T11:09:18;18.60;41.30
33564;DHT22;19894;48.452;11.494;2023-02-24T11:11:54;18.60;41.30
33564;DHT22;19894;48.452;11.494;2023-02-24T11:15:01;18.60;41.20
33564;DHT22;19894;48.452;11.494;2023-02-24T11:17:54;18.60;41.20
33564;DHT22;19894;48.452;11.494;2023-02-24T11:20:40;18.60;41.20
33564;DHT22;19894;48.452;11.494;2023-02-24T11:23:14;18.60;41.20
33564;DHT22;19894;48.452;11.494;2023-02-24T11:25:46;18.60;41.30
33564;DHT22;19894;48.452;11.494;2023-02-24T11:31:35;18.60;41.30
33564;DHT22;19894;48.452;11.494;2023-02-24T11:34:25;18.60;41.30
33564;DHT22;19894;48.452;11.494;2023-02-24T11:39:55;18.60;41.40
33564;DHT22;19894;48.452;11.494;2023-02-24T11:42:41;18.60;41.40
33564;DHT22;19894;48.452;11.494;2023-02-24T11:48:22;18.60;41.40
33564;DHT22;19894;48.452;11.494;2023-02-24T11:51:34;18.60;41.40
33564;DHT22;19894;48.452;11.494;2023-02-24T11:54:08;18.60;41.40
33564;DHT22;19894;48.452;11.494;2023-02-24T11:57:07;18.60;41.40
33564;DHT22;19894;48.452;11.494;2023-02-24T11:59:43;18.60;41.40
33564;DHT22;19894;48.452;11.494;2023-02-24T12:05:23;18.60;41.40
33564;DHT22;19894;48.452;11.494;2023-02-24T12:10:42;18.60;41.40
33564;DHT22;19894;48.452;11.494;2023-02-24T12:13:27;18.60;41.40
33564;DHT22;19894;48.452;11.494;2023-02-24T12:16:32;18.60;41.40
33564;DHT22;19894;48.452;11.494;2023-02-24T12:19:14;18.60;41.40
33564;DHT22;19894;48.452;11.494;2023-02-24T12:21:55;18.60;41.50
33564;DHT22;19894;48.452;11.494;2023-02-24T12:24:23;18.60;41.40
33564;DHT22;19894;48.452;11.494;2023-02-24T12:29:59;18.60;41.40
33564;DHT22;19894;48.452;11.494;2023-02-24T12:41:09;18.60;41.50
33564;DHT22;19894;48.452;11.494;2023-02-24T12:46:30;18.60;41.50
33564;DHT22;19894;48.452;11.494;2023-02-24T12:52:12;18.60;41.60
33564;DHT22;19894;48.452;11.494;2023-02-24T12:54:52;18.60;41.60
33564;DHT22;19894;48.452;11.494;2023-02-24T13:06:13;18.60;41.60
33564;DHT22;19894;48.452;11.494;2023-02-24T13:11:55;18.60;41.70
33564;DHT22;19894;48.452;11.494;2023-02-24T13:14:28;18.60;41.60
33564;DHT22;19894;48.452;11.494;2023-02-24T13:19:38;18.60;41.60
33564;DHT22;19894;48.452;11.494;2023-02-24T13:24:55;18.60;41.50
33564;DHT22;19894;48.452;11.494;2023-02-24T13:27:28;18.60;42.10
33564;DHT22;19894;48.452;11.494;2023-02-24T13:30:00;18.60;41.60
33564;DHT22;19894;48.452;11.494;2023-02-24T13:32:39;18.60;41.60
33564;DHT22;19894;48.452;11.494;2023-02-24T13:37:44;18.60;42.10
33564;DHT22;19894;48.452;11.494;2023-02-24T13:45:31;18.60;41.70
33564;DHT22;19894;48.452;11.494;2023-02-24T13:58:55;18.60;41.70
33564;DHT22;19894;48.452;11.494;2023-02-24T14:01:29;18.60;41.70
33564;DHT22;19894;48.452;11.494;2023-02-24T14:04:17;18.60;41.70
33564;DHT22;19894;48.452;11.494;2023-02-24T14:06:53;18.60;41.70
33564;DHT22;19894;48.452;11.494;2023-02-24T14:09:51;18.60;41.70
33564;DHT22;19894;48.452;11.494;2023-02-24T14:12:23;18.60;41.80
33564;DHT22;19894;48.452;11.494;2023-02-24T14:14:51;18.60;41.70
33564;DHT22;19894;48.452;11.494;2023-02-24T14:17:28;18.60;41.70
33564;DHT22;19894;48.452;11.494;2023-02-24T14:20:18;18.60;41.70
33564;DHT22;19894;48.452;11.494;2023-02-24T14:22:48;18.60;41.70
33564;DHT22;19894;48.452;11.494;2023-02-24T14:25:16;18.60;41.70
33564;DHT22;19894;48.452;11.494;2023-02-24T14:27:45;18.60;41.70
33564;DHT22;19894;48.452;11.494;2023-02-24T14:30:37;18.60;41.70
33564;DHT22;19894;48.452;11.494;2023-02-24T14:33:06;18.60;41.70
33564;DHT22;19894;48.452;11.494;2023-02-24T14:35:44;18.70;41.80
33564;DHT22;19894;48.452;11.494;2023-02-24T14:38:35;18.60;41.70
33564;DHT22;19894;48.452;11.494;2023-02-24T14:41:05;18.60;41.70
33564;DHT22;19894;48.452;11.494;2023-02-24T14:43:31;18.60;41.80
33564;DHT22;19894;48.452;11.494;2023-02-24T14:46:04;18.60;41.80
33564;DHT22;19894;48.452;11.494;2023-02-24T14:48:31;18.60;41.80
33564;DHT22;19894;48.452;11.494;2023-02-24T14:51:07;18.60;41.80
33564;DHT22;19894;48.452;11.494;2023-02-24T14:53:37;18.60;41.80
33564;DHT22;19894;48.452;11.494;2023-02-24T14:56:09;18.60;41.80
33564;DHT22;19894;48.452;11.494;2023-02-24T14:58:48;18.60;41.80
33564;DHT22;19894;48.452;11.494;2023-02-24T15:01:23;18.60;41.90
33564;DHT22;19894;48.452;11.494;2023-02-24T15:03:59;18.60;41.80
33564;DHT22;19894;48.452;11.494;2023-02-24T15:06:31;18.60;41.80
33564;DHT22;19894;48.452;11.494;2023-02-24T15:09:13;18.60;41.80
33564;DHT22;19894;48.452;11.494;2023-02-24T15:11:44;18.60;41.80
33564;DHT22;19894;48.452;11.494;2023-02-24T15:14:27;18.60;41.80
33564;DHT22;19894;48.452;11.494;2023-02-24T15:17:07;18.60;41.90
33564;DHT22;19894;48.452;11.494;2023-02-24T15:19:39;18.60;41.90
33564;DHT22;19894;48.452;11.494;2023-02-24T15:22:25;18.60;41.80
33564;DHT22;19894;48.452;11.494;2023-02-24T15:24:55;18.70;41.80
33564;DHT22;19894;48.452;11.494;2023-02-24T15:27:26;18.60;41.70
33564;DHT22;19894;48.452;11.494;2023-02-24T15:29:59;18.60;41.70
33564;DHT22;19894;48.452;11.494;2023-02-24T15:32:30;18.70;41.80
33564;DHT22;19894;48.452;11.494;2023-02-24T15:35:01;18.60;41.80
33564;DHT22;19894;48.452;11.494;2023-02-24T15:37:41;18.60;41.80
33564;DHT22;19894;48.452;11.494;2023-02-24T15:40:18;18.60;41.80
33564;DHT22;19894;48.452;11.494;2023-02-24T15:42:58;18.60;41.80
33564;DHT22;19894;48.452;11.494;2023-02-24T15:45:30;18.60;41.80
33564;DHT22;19894;48.452;11.494;2023-02-24T15:48:16;18.60;41.90
33564;DHT22;19894;48.452;11.494;2023-02-24T15:50:47;18.60;41.90
33564;DHT22;19894;48.452;11.494;2023-02-24T15:53:13;18.60;41.90
33564;DHT22;19894;48.452;11.494;2023-02-24T15:55:43;18.60;41.90
33564;DHT22;19894;48.452;11.494;2023-02-24T15:58:21;18.60;41.90
33564;DHT22;19894;48.452;11.494;2023-02-24T16:00:47;18.60;41.90
33564;DHT22;19894;48.452;11.494;2023-02-24T16:03:18;18.60;41.90
33564;DHT22;19894;48.452;11.494;2023-02-24T16:05:44;18.60;41.90
33564;DHT22;19894;48.452;11.494;2023-02-24T16:08:17;18.60;41.90
33564;DHT22;19894;48.452;11.494;2023-02-24T16:10:44;18.60;41.90
33564;DHT22;19894;48.452;11.494;2023-02-24T16:13:22;18.60;41.90
33564;DHT22;19894;48.452;11.494;2023-02-24T16:15:50;18.60;41.90
33564;DHT22;19894;48.452;11.494;2023-02-24T16:18:19;18.70;42.00
33564;DHT22;19894;48.452;11.494;2023-02-24T16:20:47;18.60;41.90
33564;DHT22;19894;48.452;11.494;2023-02-24T16:23:23;18.70;41.90
33564;DHT22;19894;48.452;11.494;2023-02-24T16:26:04;18.60;41.80
33564;DHT22;19894;48.452;11.494;2023-02-24T16:28:30;18.70;41.90
33564;DHT22;19894;48.452;11.494;2023-02-24T16:30:57;18.60;41.80
33564;DHT22;19894;48.452;11.494;2023-02-24T16:33:23;18.60;41.90
33564;DHT22;19894;48.452;11.494;2023-02-24T16:35:51;18.60;41.90
33564;DHT22;19894;48.452;11.494;2023-02-24T16:38:21;18.70;41.90
33564;DHT22;19894;48.452;11.494;2023-02-24T16:40:52;18.60;41.90
33564;DHT22;19894;48.452;11.494;2023-02-24T16:43:25;18.60;41.90
33564;DHT22;19894;48.452;11.494;2023-02-24T16:46:00;18.60;42.00
33564;DHT22;19894;48.452;11.494;2023-02-24T16:48:29;18.60;42.00
33564;DHT22;19894;48.452;11.494;2023-02-24T16:51:05;18.60;42.00
33564;DHT22;19894;48.452;11.494;2023-02-24T16:53:32;18.60;42.00
33564;DHT22;19894;48.452;11.494;2023-02-24T16:56:04;18.60;42.00
33564;DHT22;19894;48.452;11.494;2023-02-24T16:58:34;18.60;42.10
33564;DHT22;19894;48.452;11.494;2023-02-24T17:01:02;18.60;42.00
33564;DHT22;19894;48.452;11.494;2023-02-24T17:03:50;18.60;42.00
33564;DHT22;19894;48.452;11.494;2023-02-24T17:06:19;18.60;42.00
33564;DHT22;19894;48.452;11.494;2023-02-24T17:08:48;18.60;42.00
33564;DHT22;19894;48.452;11.494;2023-02-24T17:11:19;18.60;42.00
33564;DHT22;19894;48.452;11.494;2023-02-24T17:13:49;18.70;42.10
33564;DHT22;19894;48.452;11.494;2023-02-24T17:16:19;18.60;42.00
33564;DHT22;19894;48.452;11.494;2023-02-24T17:18:45;18.60;42.60
33564;DHT22;19894;48.452;11.494;2023-02-24T17:21:16;18.70;42.10
33564;DHT22;19894;48.452;11.494;2023-02-24T17:23:46;18.70;42.10
33564;DHT22;19894;48.452;11.494;2023-02-24T17:26:14;18.70;42.10
33564;DHT22;19894;48.452;11.494;2023-02-24T17:28:44;18.70;42.00
33564;DHT22;19894;48.452;11.494;2023-02-24T17:31:10;18.70;42.00
33564;DHT22;19894;48.452;11.494;2023-02-24T17:33:39;18.70;42.00
33564;DHT22;19894;48.452;11.494;2023-02-24T17:36:12;18.70;42.10
33564;DHT22;19894;48.452;11.494;2023-02-24T17:38:44;18.70;42.00
33564;DHT22;19894;48.452;11.494;2023-02-24T17:41:11;18.70;42.10
33564;DHT22;19894;48.452;11.494;2023-02-24T17:43:38;18.70;42.10
33564;DHT22;19894;48.452;11.494;2023-02-24T17:46:05;18.70;42.10
33564;DHT22;19894;48.452;11.494;2023-02-24T17:48:34;18.70;42.10